Main page
METAR-TAF:

METAR-TAF

Airports :

Carcassonne, France

Carcassonne Airport

latitude: 43-13N, longitude: 002-19E, elevation: 130 m

Current weather observation

The report was made 13 minutes ago, at 07:00 UTC
Wind 13 kt from the West/Northwest
Temperature 6°C
Humidity 81%
Pressure 1025 hPa
Visibility 10 km or more
Overcast at a height of 4100 ft

METAR: LFMK 180700Z AUTO 29013KT 9999 OVC041 06/03 Q1025 NOSIG

Time: 08:13 (07:13 UTC)

Forecast

The report was made 5 hours and 13 minutes ago, at 02:00 UTC
Forecast valid from 18 at 03 UTC to 19 at 03 UTC
Wind 15 kt from the West
Visibility 10 km or more
Broken clouds at a height of 5000 ft
Temporary
from 18 at 03 UTC to 18 at 10 UTC
Broken clouds at a height of 1500 ft
Becoming
from 18 at 12 UTC to 18 at 14 UTC
Visibility 10 km or more
no clouds below 1500 m and no cumulonimbus

TAF: LFMK 180200Z 1803/1903 28015KT 9999 BKN050 TEMPO 1803/1810 BKN015 BECMG 1812/1814 CAVOK

Weather observations and forecasts of more than 4000 airports (METAR and TAF reports).

The available stations are represented by yellow and red dots on the map.

Hover mouse over dot to see the name of the station.

Then click to see weather observations and forecasts.

To change the map : click on the green buttons with a black cross to zoom in, on the green button with a dash to zoom out, or on the green arrows for adjacent maps.


METAR-TAF: